createdAt,value
2019-04-10T00:00:44.359Z,3.20
2019-04-10T00:03:25.814Z,3.20
2019-04-10T00:05:46.173Z,3.10
2019-04-10T00:08:15.699Z,3.10
2019-04-10T00:10:45.826Z,3.00
2019-04-10T00:13:15.549Z,3.00
2019-04-10T00:15:45.218Z,2.90
2019-04-10T00:18:15.821Z,2.90
2019-04-10T00:20:46.885Z,2.90
2019-04-10T00:23:17.347Z,2.90
2019-04-10T00:25:47.015Z,2.90
2019-04-10T00:28:17.040Z,2.90
2019-04-10T00:30:46.851Z,2.80
2019-04-10T00:33:16.647Z,2.80
2019-04-10T00:35:46.274Z,2.70
2019-04-10T00:38:15.810Z,2.70
2019-04-10T00:40:45.814Z,2.60
2019-04-10T00:43:15.680Z,2.60
2019-04-10T00:45:45.985Z,2.60
2019-04-10T00:48:15.591Z,2.60
2019-04-10T00:50:45.184Z,2.60
2019-04-10T00:53:14.821Z,2.50
2019-04-10T00:55:44.511Z,2.50
2019-04-10T00:58:14.204Z,2.50
2019-04-10T01:00:44.047Z,2.50
2019-04-10T01:03:15.931Z,2.40
2019-04-10T01:05:45.531Z,2.40
2019-04-10T01:08:16.094Z,2.30
2019-04-10T01:10:46.287Z,2.30
2019-04-10T01:13:16.737Z,2.30
2019-04-10T01:15:46.873Z,2.20
2019-04-10T01:18:17.168Z,2.20
2019-04-10T01:20:46.767Z,2.20
2019-04-10T01:23:16.298Z,2.10
2019-04-10T01:25:46.447Z,2.10
2019-04-10T01:28:16.568Z,2.10
2019-04-10T01:30:46.614Z,2.10
2019-04-10T01:33:16.561Z,2.10
2019-04-10T01:35:46.692Z,2.00
2019-04-10T01:38:17.515Z,2.00
2019-04-10T01:40:47.615Z,2.00
2019-04-10T01:43:19.871Z,2.00
2019-04-10T01:45:49.522Z,2.00
2019-04-10T01:48:19.564Z,1.90
2019-04-10T01:50:49.183Z,1.90
2019-04-10T01:53:19.637Z,1.90
2019-04-10T01:55:49.436Z,1.90
2019-04-10T01:58:21.106Z,1.90
2019-04-10T02:01:10.162Z,1.80
2019-04-10T02:03:40.368Z,1.80
2019-04-10T02:06:11.168Z,1.80
2019-04-10T02:08:42.292Z,1.80
2019-04-10T02:11:11.920Z,1.70
2019-04-10T02:13:41.452Z,1.70
2019-04-10T02:16:10.972Z,1.70
2019-04-10T02:18:41.565Z,1.60
2019-04-10T02:21:11.595Z,1.60
2019-04-10T02:23:41.140Z,1.50
2019-04-10T02:26:11.563Z,1.50
2019-04-10T02:28:41.267Z,1.50
2019-04-10T02:31:12.363Z,1.40
2019-04-10T02:34:01.789Z,1.40
2019-04-10T02:36:31.747Z,1.40
2019-04-10T02:39:13.803Z,1.40
2019-04-10T02:41:34.562Z,1.30
2019-04-10T02:44:05.012Z,1.30
2019-04-10T02:46:34.740Z,1.30
2019-04-10T02:49:05.997Z,1.30
2019-04-10T02:51:35.870Z,1.30
2019-04-10T02:54:05.696Z,1.30
2019-04-10T02:56:36.635Z,1.20
2019-04-10T02:59:07.353Z,1.30
2019-04-10T03:01:38.029Z,1.20
2019-04-10T03:04:09.305Z,1.20
2019-04-10T03:06:39.513Z,1.20
2019-04-10T03:09:26.085Z,1.20
2019-04-10T03:11:41.969Z,1.10
2019-04-10T03:14:12.672Z,1.20
2019-04-10T03:16:43.699Z,1.20
2019-04-10T03:19:13.690Z,1.20
2019-04-10T03:21:43.315Z,1.10
2019-04-10T03:24:13.906Z,1.10
2019-04-10T03:26:43.826Z,1.20
2019-04-10T03:29:13.787Z,1.20
2019-04-10T03:31:45.096Z,1.20
2019-04-10T03:34:30.376Z,1.30
2019-04-10T03:36:58.091Z,1.30
2019-04-10T03:39:27.847Z,1.20
2019-04-10T03:41:58.756Z,1.20
2019-04-10T03:44:28.387Z,1.10
2019-04-10T03:46:58.681Z,1.00
2019-04-10T03:49:28.328Z,1.00
2019-04-10T03:51:57.852Z,0.90
2019-04-10T03:54:28.037Z,0.90
2019-04-10T03:56:58.276Z,0.90
2019-04-10T03:59:28.524Z,0.90
2019-04-10T04:01:59.621Z,0.90
2019-04-10T04:04:29.270Z,1.00
2019-04-10T04:06:59.832Z,1.00
2019-04-10T04:09:29.446Z,1.10
2019-04-10T04:11:59.038Z,1.10
2019-04-10T04:14:29.138Z,1.10
2019-04-10T04:16:59.769Z,1.00
2019-04-10T04:19:30.952Z,1.00
2019-04-10T04:22:00.779Z,1.10
2019-04-10T04:24:30.223Z,1.10
2019-04-10T04:27:00.548Z,1.10
2019-04-10T04:29:30.384Z,1.10
2019-04-10T04:32:01.131Z,1.20
2019-04-10T04:34:31.303Z,1.20
2019-04-10T04:37:00.909Z,1.20
2019-04-10T04:39:31.430Z,1.20
2019-04-10T04:42:01.132Z,1.20
2019-04-10T04:44:31.113Z,1.30
2019-04-10T04:47:01.347Z,1.20
2019-04-10T04:49:31.101Z,1.30
2019-04-10T04:52:00.683Z,1.20
2019-04-10T04:54:31.004Z,1.20
2019-04-10T04:57:00.904Z,1.30
2019-04-10T04:59:30.392Z,1.20
2019-04-10T05:02:00.071Z,1.30
2019-04-10T05:04:32.201Z,1.40
2019-04-10T05:07:00.972Z,1.30
2019-04-10T05:09:35.707Z,1.40
2019-04-10T05:12:02.852Z,1.40
2019-04-10T05:14:32.587Z,1.50
2019-04-10T05:17:02.388Z,1.60
2019-04-10T05:19:32.084Z,1.70
2019-04-10T05:22:01.698Z,1.70
2019-04-10T05:24:32.006Z,1.70
2019-04-10T05:27:01.923Z,1.80
2019-04-10T05:29:31.636Z,1.80
2019-04-10T05:32:01.352Z,1.90
2019-04-10T05:34:31.051Z,2.10
2019-04-10T05:37:00.575Z,2.20
2019-04-10T05:39:39.694Z,2.30
2019-04-10T05:42:02.376Z,2.30
2019-04-10T05:44:32.532Z,2.30
2019-04-10T05:47:03.276Z,2.20
2019-04-10T05:49:33.363Z,2.40
2019-04-10T05:52:04.122Z,2.60
2019-04-10T05:54:33.846Z,2.80
2019-04-10T05:57:04.120Z,3.00
2019-04-10T05:59:34.311Z,3.00
2019-04-10T06:02:05.312Z,2.90
2019-04-10T06:04:35.692Z,2.90
2019-04-10T06:07:05.640Z,2.90
2019-04-10T06:09:35.280Z,3.10
2019-04-10T06:12:05.773Z,3.30
2019-04-10T06:14:36.144Z,3.50
2019-04-10T06:17:06.019Z,3.70
2019-04-10T06:19:36.438Z,4.00
2019-04-10T06:22:08.046Z,4.20
2019-04-10T06:24:38.491Z,4.50
2019-04-10T06:27:08.295Z,5.70
2019-04-10T06:29:39.206Z,6.60
2019-04-10T06:32:09.479Z,8.00
2019-04-10T06:34:39.792Z,9.40
2019-04-10T06:37:10.332Z,11.30
2019-04-10T06:39:42.849Z,12.50
2019-04-10T06:42:12.087Z,13.80
2019-04-10T06:44:42.066Z,15.50
2019-04-10T06:47:11.980Z,17.00
2019-04-10T06:49:41.574Z,18.10
2019-04-10T06:52:11.307Z,18.90
2019-04-10T06:54:41.143Z,18.80
2019-04-10T06:57:10.671Z,18.40
2019-04-10T06:59:40.287Z,17.60
2019-04-10T07:02:21.714Z,16.90
2019-04-10T07:04:45.989Z,16.40
2019-04-10T07:07:15.559Z,15.90
2019-04-10T07:09:44.120Z,16.50
2019-04-10T07:12:14.379Z,17.00
2019-04-10T07:14:48.288Z,17.50
2019-04-10T07:17:15.998Z,18.00
2019-04-10T07:19:46.068Z,18.90
2019-04-10T07:22:17.367Z,18.70
2019-04-10T07:24:48.114Z,18.60
2019-04-10T07:27:17.828Z,18.80
2019-04-10T07:29:50.847Z,18.30
2019-04-10T07:32:19.446Z,16.70
2019-04-10T07:34:49.302Z,14.30
2019-04-10T07:37:21.688Z,12.70
2019-04-10T07:39:50.960Z,11.70
2019-04-10T07:42:29.392Z,11.40
2019-04-10T07:44:52.030Z,10.90
2019-04-10T07:47:22.103Z,10.30
2019-04-10T07:49:52.537Z,10.00
2019-04-10T07:52:22.934Z,9.60
2019-04-10T07:54:54.573Z,9.20
2019-04-10T07:57:24.518Z,8.80
2019-04-10T07:59:54.624Z,8.50
2019-04-10T08:02:24.193Z,8.30
2019-04-10T08:04:53.958Z,8.10
2019-04-10T08:07:29.459Z,7.90
2019-04-10T08:09:54.747Z,7.70
2019-04-10T08:12:32.413Z,7.70
2019-04-10T08:14:56.170Z,7.50
2019-04-10T08:17:25.740Z,7.30
2019-04-10T08:19:55.256Z,7.20
2019-04-10T08:22:24.736Z,7.20
2019-04-10T08:24:54.252Z,7.30
2019-04-10T08:27:23.798Z,7.40
2019-04-10T08:29:53.339Z,7.60
2019-04-10T08:32:23.655Z,7.40
2019-04-10T08:34:53.593Z,7.20
2019-04-10T08:37:24.164Z,7.00
2019-04-10T08:39:54.764Z,7.10
2019-04-10T08:42:24.510Z,6.90
2019-04-10T08:44:54.247Z,6.80
2019-04-10T08:47:24.887Z,6.80
2019-04-10T08:49:54.962Z,7.00
2019-04-10T08:52:24.688Z,7.10
2019-04-10T08:54:54.343Z,7.10
2019-04-10T08:57:24.312Z,7.20
2019-04-10T08:59:54.156Z,7.10
2019-04-10T09:02:24.108Z,7.10
2019-04-10T09:04:53.928Z,7.10
2019-04-10T09:07:24.256Z,7.20
2019-04-10T09:09:54.177Z,7.30
2019-04-10T09:12:24.011Z,7.30
2019-04-10T09:14:53.891Z,7.30
2019-04-10T09:17:23.600Z,7.40
2019-04-10T09:19:54.066Z,7.40
2019-04-10T09:22:24.627Z,7.50
2019-04-10T09:24:54.923Z,7.60
2019-04-10T09:27:24.775Z,7.70
2019-04-10T09:29:54.569Z,7.70
2019-04-10T09:32:24.440Z,7.70
2019-04-10T09:34:54.101Z,7.60
2019-04-10T09:37:24.163Z,7.60
2019-04-10T09:39:56.162Z,7.70
2019-04-10T09:42:25.849Z,7.80
2019-04-10T09:44:55.372Z,8.00
2019-04-10T09:47:25.003Z,8.10
2019-04-10T09:49:55.486Z,8.10
2019-04-10T09:52:25.815Z,8.10
2019-04-10T09:54:57.510Z,8.10
2019-04-10T09:57:27.003Z,8.40
2019-04-10T09:59:56.816Z,8.80
2019-04-10T10:02:27.458Z,8.90
2019-04-10T10:04:57.829Z,8.70
2019-04-10T10:07:28.454Z,8.70
2019-04-10T10:10:00.764Z,8.60
2019-04-10T10:12:29.767Z,8.60
2019-04-10T10:15:00.185Z,8.60
2019-04-10T10:17:30.818Z,8.70
2019-04-10T10:20:01.693Z,8.80
2019-04-10T10:22:31.996Z,8.70
2019-04-10T10:25:02.805Z,8.70
2019-04-10T10:27:32.571Z,8.80
2019-04-10T10:30:02.238Z,9.00
2019-04-10T10:32:32.776Z,9.00
2019-04-10T10:35:03.192Z,9.20
2019-04-10T10:37:32.711Z,9.20
2019-04-10T10:40:03.385Z,9.30
2019-04-10T10:42:34.125Z,9.60
2019-04-10T10:45:07.171Z,9.60
2019-04-10T10:47:38.015Z,9.50
2019-04-10T10:50:08.736Z,9.40
2019-04-10T10:52:39.646Z,9.30
2019-04-10T10:55:09.916Z,9.40
2019-04-10T10:57:39.690Z,9.70
2019-04-10T11:00:12.805Z,9.80
2019-04-10T11:02:41.695Z,10.00
2019-04-10T11:05:12.699Z,10.10
2019-04-10T11:07:42.915Z,10.10
2019-04-10T11:10:14.754Z,10.40
2019-04-10T11:12:44.379Z,10.60
2019-04-10T11:15:13.976Z,11.00
2019-04-10T11:17:44.705Z,11.40
2019-04-10T11:20:15.227Z,11.90
2019-04-10T11:22:45.069Z,11.80
2019-04-10T11:25:15.699Z,11.50
2019-04-10T11:27:45.375Z,11.20
2019-04-10T11:30:16.001Z,11.10
2019-04-10T11:32:46.291Z,11.00
2019-04-10T11:35:17.429Z,10.40
2019-04-10T11:37:51.067Z,10.00
2019-04-10T11:40:19.272Z,10.10
2019-04-10T11:42:48.935Z,10.20
2019-04-10T11:45:19.187Z,10.20
2019-04-10T11:47:51.245Z,10.40
2019-04-10T11:50:21.622Z,10.60
2019-04-10T11:52:53.342Z,11.10
2019-04-10T11:55:27.026Z,10.90
2019-04-10T11:57:54.587Z,10.90
2019-04-10T12:00:47.756Z,10.90
2019-04-10T12:03:12.829Z,11.00
2019-04-10T12:05:48.378Z,11.30
2019-04-10T12:08:41.699Z,11.90
2019-04-10T12:13:20.683Z,12.20
2019-04-10T12:15:52.509Z,11.80
2019-04-10T12:18:22.554Z,11.80
2019-04-10T12:20:53.519Z,12.00
2019-04-10T12:23:23.258Z,11.80
2019-04-10T12:25:53.566Z,11.70
2019-04-10T12:28:23.552Z,11.10
2019-04-10T12:30:53.605Z,10.70
2019-04-10T12:33:23.397Z,10.50
2019-04-10T12:35:54.096Z,10.40
2019-04-10T12:38:24.103Z,10.20
2019-04-10T12:40:53.635Z,10.20
2019-04-10T12:43:23.334Z,10.10
2019-04-10T12:45:53.091Z,10.10
2019-04-10T12:48:23.081Z,10.00
2019-04-10T12:50:53.072Z,10.20
2019-04-10T12:53:23.327Z,10.30
2019-04-10T12:55:53.595Z,10.70
2019-04-10T12:58:23.559Z,10.60
2019-04-10T13:00:53.291Z,10.40
2019-04-10T13:03:23.329Z,10.50
2019-04-10T13:05:53.673Z,10.40
2019-04-10T13:08:31.135Z,10.40
2019-04-10T13:10:55.996Z,10.50
2019-04-10T13:13:27.046Z,10.60
2019-04-10T13:15:57.236Z,10.70
2019-04-10T13:18:26.704Z,10.50
2019-04-10T13:20:56.159Z,10.40
2019-04-10T13:23:25.785Z,10.20
2019-04-10T13:26:00.974Z,10.10
2019-04-10T13:28:27.591Z,9.90
2019-04-10T13:30:58.445Z,9.80
2019-04-10T13:33:28.912Z,9.80
2019-04-10T13:35:59.575Z,9.80
2019-04-10T13:38:33.653Z,9.80
2019-04-10T13:41:00.272Z,9.80
2019-04-10T13:43:29.779Z,10.10
2019-04-10T13:46:00.435Z,10.20
2019-04-10T13:48:31.245Z,10.10
2019-04-10T13:51:01.303Z,10.20
2019-04-10T13:53:32.133Z,10.00
2019-04-10T13:56:01.952Z,9.80
2019-04-10T13:58:31.584Z,9.70
2019-04-10T14:01:01.433Z,9.60
2019-04-10T14:03:31.255Z,9.60
2019-04-10T14:06:01.171Z,9.60
2019-04-10T14:08:47.146Z,9.60
2019-04-10T14:11:02.661Z,9.80
2019-04-10T14:13:32.625Z,9.70
2019-04-10T14:16:02.744Z,9.80
2019-04-10T14:18:32.944Z,9.70
2019-04-10T14:21:07.535Z,9.70
2019-04-10T14:23:35.315Z,9.70
2019-04-10T14:26:22.494Z,9.70
2019-04-10T14:28:53.441Z,9.70
2019-04-10T14:31:28.773Z,9.80
2019-04-10T14:33:58.596Z,9.80
2019-04-10T14:36:28.301Z,9.80
2019-04-10T14:39:08.271Z,9.70
2019-04-10T14:41:29.582Z,9.70
2019-04-10T14:43:59.507Z,9.60
2019-04-10T14:46:28.959Z,9.60
2019-04-10T14:48:58.606Z,9.60
2019-04-10T14:51:28.347Z,9.60
2019-04-10T14:53:58.007Z,9.70
2019-04-10T14:56:28.360Z,9.70
2019-04-10T14:58:58.071Z,9.70
2019-04-10T15:01:28.228Z,9.70
2019-04-10T15:03:58.082Z,9.70
2019-04-10T15:06:27.531Z,9.60
2019-04-10T15:08:57.756Z,9.50
2019-04-10T15:11:28.799Z,9.50
2019-04-10T15:13:59.172Z,9.60
2019-04-10T15:16:30.080Z,9.70
2019-04-10T15:19:00.361Z,9.90
2019-04-10T15:21:31.129Z,10.00
2019-04-10T15:24:01.404Z,10.10
2019-04-10T15:26:32.244Z,10.10
2019-04-10T15:29:02.418Z,10.10
2019-04-10T15:31:33.281Z,10.00
2019-04-10T15:34:03.651Z,10.00
2019-04-10T15:36:33.953Z,9.90
2019-04-10T15:39:06.530Z,9.80
2019-04-10T15:41:36.500Z,9.80
2019-04-10T15:44:06.140Z,9.80
2019-04-10T15:46:35.772Z,9.60
2019-04-10T15:49:06.955Z,9.60
2019-04-10T15:51:36.727Z,9.70
2019-04-10T15:54:07.497Z,9.70
2019-04-10T15:56:38.127Z,9.90
2019-04-10T15:59:08.138Z,10.30
2019-04-10T16:01:37.759Z,10.50
2019-04-10T16:04:08.255Z,10.70
2019-04-10T16:06:39.660Z,10.90
2019-04-10T16:09:09.719Z,10.90
2019-04-10T16:11:58.489Z,10.70
2019-04-10T16:14:30.198Z,10.40
2019-04-10T16:17:17.448Z,10.10
2019-04-10T16:20:05.147Z,9.90
2019-04-10T16:22:36.501Z,9.70
2019-04-10T16:25:09.568Z,9.60
2019-04-10T16:27:39.394Z,9.60
2019-04-10T16:30:12.286Z,9.60
2019-04-10T16:32:42.134Z,9.60
2019-04-10T16:35:13.559Z,9.60
2019-04-10T16:37:43.987Z,9.60
2019-04-10T16:40:14.987Z,9.70
2019-04-10T16:42:44.800Z,9.70
2019-04-10T16:45:15.795Z,9.70
2019-04-10T16:47:46.272Z,9.60
2019-04-10T16:50:15.975Z,9.60
2019-04-10T16:52:45.528Z,9.60
2019-04-10T16:55:15.658Z,9.60
2019-04-10T16:57:45.467Z,9.50
2019-04-10T17:00:17.101Z,9.50
2019-04-10T17:02:47.204Z,9.50
2019-04-10T17:05:16.728Z,9.60
2019-04-10T17:07:47.476Z,9.80
2019-04-10T17:10:23.024Z,9.90
2019-04-10T17:12:50.355Z,9.80
2019-04-10T17:15:20.080Z,9.80
2019-04-10T17:17:50.605Z,9.70
2019-04-10T17:20:20.880Z,9.50
2019-04-10T17:22:51.965Z,9.30
2019-04-10T17:25:22.191Z,9.10
2019-04-10T17:27:52.077Z,9.00
2019-04-10T17:30:21.958Z,8.90
2019-04-10T17:32:52.172Z,8.80
2019-04-10T17:35:23.245Z,8.70
2019-04-10T17:37:53.997Z,8.70
2019-04-10T17:40:31.890Z,8.60
2019-04-10T17:42:54.962Z,8.60
2019-04-10T17:45:25.802Z,8.60
2019-04-10T17:47:56.555Z,8.60
2019-04-10T17:50:28.003Z,8.60
2019-04-10T17:52:58.888Z,8.60
2019-04-10T17:55:28.474Z,8.70
2019-04-10T17:57:58.398Z,8.50
2019-04-10T18:00:33.148Z,8.40
2019-04-10T18:03:03.439Z,8.30
2019-04-10T18:05:33.183Z,8.20
2019-04-10T18:08:02.929Z,8.10
2019-04-10T18:10:43.560Z,8.00
2019-04-10T18:13:05.117Z,8.00
2019-04-10T18:15:35.833Z,7.90
2019-04-10T18:18:05.570Z,7.80
2019-04-10T18:20:35.957Z,7.70
2019-04-10T18:23:05.687Z,7.70
2019-04-10T18:25:36.146Z,7.60
2019-04-10T18:28:07.518Z,7.60
2019-04-10T18:30:38.510Z,7.50
2019-04-10T18:33:08.511Z,7.50
2019-04-10T18:35:38.657Z,7.40
2019-04-10T18:38:09.014Z,7.30
2019-04-10T18:40:39.266Z,7.20
2019-04-10T18:43:09.796Z,7.10
2019-04-10T18:45:42.031Z,7.10
2019-04-10T18:48:11.347Z,7.10
2019-04-10T18:50:41.071Z,7.10
2019-04-10T18:53:10.982Z,7.00
2019-04-10T18:55:40.843Z,7.00
2019-04-10T18:58:12.012Z,6.90
2019-04-10T19:00:43.372Z,6.90
2019-04-10T19:03:15.104Z,6.90
2019-04-10T19:05:52.122Z,6.80
2019-04-10T19:08:21.966Z,6.70
2019-04-10T19:10:51.740Z,6.70
2019-04-10T19:13:23.017Z,6.70
2019-04-10T19:15:53.089Z,6.60
2019-04-10T19:18:23.729Z,6.60
2019-04-10T19:20:53.675Z,6.50
2019-04-10T19:23:23.907Z,6.50
2019-04-10T19:25:54.695Z,6.50
2019-04-10T19:28:30.123Z,6.50
2019-04-10T19:31:12.966Z,6.40
2019-04-10T19:33:39.333Z,6.40
2019-04-10T19:36:09.838Z,6.40
2019-04-10T19:38:39.614Z,6.40
2019-04-10T19:41:23.490Z,6.30
2019-04-10T19:43:40.668Z,6.30
2019-04-10T19:46:10.632Z,6.20
2019-04-10T19:48:41.536Z,6.20
2019-04-10T19:51:12.098Z,6.20
2019-04-10T19:53:42.041Z,6.20
2019-04-10T19:56:12.617Z,6.10
2019-04-10T19:58:42.475Z,6.10
2019-04-10T20:01:12.732Z,6.10
2019-04-10T20:03:43.852Z,6.00
2019-04-10T20:06:14.210Z,6.00
2019-04-10T20:08:44.234Z,6.00
2019-04-10T20:11:14.777Z,5.90
2019-04-10T20:13:45.002Z,5.90
2019-04-10T20:16:15.300Z,5.80
2019-04-10T20:18:45.244Z,5.80
2019-04-10T20:21:15.497Z,5.80
2019-04-10T20:23:45.977Z,5.80
2019-04-10T20:26:15.827Z,5.80
2019-04-10T20:28:45.375Z,5.80
2019-04-10T20:31:17.233Z,5.80
2019-04-10T20:33:47.244Z,5.80
2019-04-10T20:36:17.251Z,5.80
2019-04-10T20:38:48.340Z,5.80
2019-04-10T20:41:18.251Z,5.80
2019-04-10T20:43:47.941Z,5.70
2019-04-10T20:46:18.099Z,5.70
2019-04-10T20:48:48.821Z,5.70
2019-04-10T20:51:18.915Z,5.70
2019-04-10T20:53:48.887Z,5.70
2019-04-10T20:56:19.799Z,5.60
2019-04-10T20:58:50.532Z,5.60
2019-04-10T21:01:20.480Z,5.60
2019-04-10T21:03:50.268Z,5.60
2019-04-10T21:06:19.700Z,5.60
2019-04-10T21:08:50.345Z,5.60
2019-04-10T21:11:20.401Z,5.60
2019-04-10T21:13:50.965Z,5.60
2019-04-10T21:16:20.591Z,5.50
2019-04-10T21:18:50.135Z,5.50
2019-04-10T21:21:19.676Z,5.50
2019-04-10T21:23:49.199Z,5.50
2019-04-10T21:26:19.788Z,5.50
2019-04-10T21:28:49.482Z,5.50
2019-04-10T21:31:37.040Z,5.60
2019-04-10T21:34:26.544Z,5.60
2019-04-10T21:36:57.510Z,5.60
2019-04-10T21:39:27.779Z,5.50
2019-04-10T21:42:10.264Z,5.50
2019-04-10T21:44:29.050Z,5.50
2019-04-10T21:46:59.304Z,5.40
2019-04-10T21:49:30.247Z,5.40
2019-04-10T21:52:00.132Z,5.40
2019-04-10T21:54:29.607Z,5.40
2019-04-10T21:56:59.814Z,5.40
2019-04-10T21:59:29.519Z,5.40
2019-04-10T22:01:59.380Z,5.40
2019-04-10T22:04:28.979Z,5.50
2019-04-10T22:07:03.437Z,5.50
2019-04-10T22:09:50.810Z,5.50
2019-04-10T22:12:30.729Z,5.50
2019-04-10T22:14:53.358Z,5.40
2019-04-10T22:17:22.896Z,5.40
2019-04-10T22:19:52.853Z,5.30
2019-04-10T22:22:22.632Z,5.30
2019-04-10T22:24:52.280Z,5.30
2019-04-10T22:27:21.807Z,5.30
2019-04-10T22:29:52.157Z,5.30
2019-04-10T22:32:22.690Z,5.40
2019-04-10T22:34:52.768Z,5.40
2019-04-10T22:37:23.576Z,5.30
2019-04-10T22:39:54.528Z,5.40
2019-04-10T22:42:35.676Z,5.40
2019-04-10T22:44:56.136Z,5.40
2019-04-10T22:47:25.718Z,5.40
2019-04-10T22:49:55.683Z,5.40
2019-04-10T22:52:26.174Z,5.50
2019-04-10T22:54:55.775Z,5.60
2019-04-10T22:57:25.303Z,5.60
2019-04-10T22:59:55.334Z,5.50
2019-04-10T23:02:25.572Z,5.60
2019-04-10T23:04:55.665Z,5.70
2019-04-10T23:07:26.075Z,5.80
2019-04-10T23:09:56.859Z,5.80
2019-04-10T23:12:26.668Z,5.80
2019-04-10T23:14:59.387Z,5.80
2019-04-10T23:17:28.920Z,5.90
2019-04-10T23:19:58.604Z,5.80
2019-04-10T23:22:29.367Z,5.70
2019-04-10T23:25:00.059Z,5.70
2019-04-10T23:27:30.481Z,5.70
2019-04-10T23:30:00.314Z,5.70
2019-04-10T23:32:31.078Z,5.60
2019-04-10T23:35:01.412Z,5.60
2019-04-10T23:37:31.054Z,5.70
2019-04-10T23:40:00.823Z,5.60
2019-04-10T23:42:30.587Z,5.70
2019-04-10T23:45:01.596Z,5.60
2019-04-10T23:47:31.852Z,5.70
2019-04-10T23:50:01.939Z,5.70
2019-04-10T23:52:31.865Z,5.70
2019-04-10T23:55:01.829Z,5.70
2019-04-10T23:57:31.699Z,5.70
